createdAt,value
2017-07-19T00:02:24.187Z,7.60
2017-07-19T00:04:53.205Z,7.40
2017-07-19T00:07:21.455Z,7.57
2017-07-19T00:09:49.729Z,7.50
2017-07-19T00:12:18.737Z,7.97
2017-07-19T00:14:46.990Z,7.70
2017-07-19T00:17:16.026Z,7.97
2017-07-19T00:19:44.253Z,7.93
2017-07-19T00:22:13.302Z,8.37
2017-07-19T00:24:41.556Z,8.47
2017-07-19T00:27:09.813Z,8.90
2017-07-19T00:29:38.058Z,8.00
2017-07-19T00:32:06.326Z,9.50
2017-07-19T00:34:34.551Z,8.60
2017-07-19T00:37:03.616Z,8.50
2017-07-19T00:39:32.846Z,9.30
2017-07-19T00:42:01.899Z,7.60
2017-07-19T00:44:30.181Z,7.50
2017-07-19T00:46:58.432Z,9.53
2017-07-19T00:49:26.684Z,9.20
2017-07-19T00:51:54.945Z,8.20
2017-07-19T00:54:24.010Z,8.60
2017-07-19T00:56:52.237Z,9.53
2017-07-19T00:59:20.482Z,9.00
2017-07-19T01:01:48.773Z,9.10
2017-07-19T01:04:18.682Z,8.90
2017-07-19T01:06:47.039Z,9.40
2017-07-19T01:09:15.321Z,8.43
2017-07-19T01:11:44.495Z,8.37
2017-07-19T01:14:12.783Z,9.33
2017-07-19T01:16:41.161Z,9.13
2017-07-19T01:19:09.385Z,10.13
2017-07-19T01:21:37.645Z,9.50
2017-07-19T01:24:05.893Z,9.60
2017-07-19T01:26:34.165Z,7.87
2017-07-19T01:29:02.395Z,9.30
2017-07-19T01:31:30.662Z,9.20
2017-07-19T01:33:59.650Z,8.77
2017-07-19T01:36:28.646Z,9.50
2017-07-19T01:38:57.715Z,9.53
2017-07-19T01:41:27.929Z,9.20
2017-07-19T01:43:56.209Z,10.00
2017-07-19T01:46:24.505Z,9.70
2017-07-19T01:48:52.767Z,9.10
2017-07-19T01:51:21.018Z,9.30
2017-07-19T01:53:49.283Z,9.23
2017-07-19T01:56:17.527Z,10.07
2017-07-19T01:58:45.851Z,11.30
2017-07-19T02:01:14.081Z,11.10
2017-07-19T02:03:43.976Z,9.20
2017-07-19T02:06:12.278Z,9.03
2017-07-19T02:08:40.953Z,9.50
2017-07-19T02:11:09.971Z,8.37
2017-07-19T02:13:38.222Z,9.60
2017-07-19T02:16:06.475Z,10.00
2017-07-19T02:18:35.949Z,11.13
2017-07-19T02:21:04.935Z,9.10
2017-07-19T02:23:33.215Z,9.63
2017-07-19T02:26:01.455Z,9.93
2017-07-19T02:28:30.481Z,10.30
2017-07-19T02:30:58.763Z,9.93
2017-07-19T02:33:27.018Z,9.93
2017-07-19T02:35:56.069Z,10.73
2017-07-19T02:38:24.814Z,10.63
2017-07-19T02:40:53.075Z,8.90
2017-07-19T02:43:21.345Z,9.90
2017-07-19T02:45:50.379Z,9.80
2017-07-19T02:48:18.609Z,10.40
2017-07-19T02:50:47.627Z,10.60
2017-07-19T02:53:16.662Z,10.50
2017-07-19T02:55:45.032Z,10.53
2017-07-19T02:58:13.243Z,10.80
2017-07-19T03:00:41.520Z,11.77
2017-07-19T03:03:10.544Z,11.30
2017-07-19T03:05:38.787Z,11.70
2017-07-19T03:08:07.049Z,10.10
2017-07-19T03:10:35.274Z,11.07
2017-07-19T03:13:03.540Z,10.87
2017-07-19T03:15:32.676Z,11.17
2017-07-19T03:18:00.894Z,10.40
2017-07-19T03:20:29.934Z,11.80
2017-07-19T03:22:58.190Z,12.23
2017-07-19T03:25:26.432Z,10.83
2017-07-19T03:27:54.711Z,10.50
2017-07-19T03:30:22.970Z,10.30
2017-07-19T03:32:51.231Z,10.63
2017-07-19T03:35:19.478Z,12.40
2017-07-19T03:37:47.731Z,11.03
2017-07-19T03:40:15.980Z,11.20
2017-07-19T03:42:44.226Z,11.20
2017-07-19T03:45:12.531Z,11.53
2017-07-19T03:47:40.774Z,11.97
2017-07-19T03:50:09.034Z,12.57
2017-07-19T03:52:37.448Z,12.17
2017-07-19T03:55:06.442Z,11.70
2017-07-19T03:57:34.744Z,13.33
2017-07-19T04:00:03.017Z,11.43
2017-07-19T04:02:31.331Z,12.23
2017-07-19T04:05:00.373Z,10.83
2017-07-19T04:07:28.605Z,12.20
2017-07-19T04:09:57.643Z,11.33
2017-07-19T04:12:25.874Z,11.60
2017-07-19T04:14:54.939Z,12.77
2017-07-19T04:17:23.198Z,11.33
2017-07-19T04:19:51.438Z,11.90
2017-07-19T04:22:19.712Z,11.83
2017-07-19T04:24:47.995Z,11.70
2017-07-19T04:27:17.043Z,12.47
2017-07-19T04:29:45.250Z,12.97
2017-07-19T04:32:14.278Z,12.90
2017-07-19T04:34:42.522Z,11.30
2017-07-19T04:37:11.550Z,9.77
2017-07-19T04:39:39.826Z,10.53
2017-07-19T04:42:08.094Z,9.00
2017-07-19T04:44:36.374Z,8.37
2017-07-19T04:47:04.626Z,10.33
2017-07-19T04:49:33.643Z,10.60
2017-07-19T04:52:01.897Z,9.30
2017-07-19T04:54:30.901Z,9.80
2017-07-19T04:56:59.197Z,9.67
2017-07-19T04:59:27.451Z,9.73
2017-07-19T05:01:56.458Z,8.97
2017-07-19T05:04:24.820Z,9.67
2017-07-19T05:06:53.072Z,8.97
2017-07-19T05:09:21.296Z,8.70
2017-07-19T05:11:49.549Z,9.40
2017-07-19T05:14:18.571Z,8.57
2017-07-19T05:16:46.864Z,10.27
2017-07-19T05:19:15.125Z,8.77
2017-07-19T05:21:43.369Z,8.43
2017-07-19T05:24:12.417Z,7.70
2017-07-19T05:26:40.627Z,8.90
2017-07-19T05:29:08.902Z,7.70
2017-07-19T05:31:37.146Z,7.43
2017-07-19T05:34:05.842Z,8.93
2017-07-19T05:36:34.096Z,9.30
2017-07-19T05:39:02.333Z,9.50
2017-07-19T05:41:31.351Z,8.40
2017-07-19T05:43:59.589Z,9.97
2017-07-19T05:46:27.913Z,8.97
2017-07-19T05:48:56.905Z,9.50
2017-07-19T05:51:25.162Z,9.90
2017-07-19T05:53:53.442Z,10.13
2017-07-19T05:56:22.486Z,9.37
2017-07-19T05:58:50.764Z,9.80
2017-07-19T06:01:19.016Z,10.37
2017-07-19T06:03:47.333Z,26.70
2017-07-19T06:06:15.566Z,11.80
2017-07-19T06:08:43.831Z,10.13
2017-07-19T06:11:12.130Z,9.30
2017-07-19T06:13:40.385Z,10.00
2017-07-19T06:16:08.658Z,9.40
2017-07-19T06:18:37.682Z,10.30
2017-07-19T06:21:05.962Z,9.43
2017-07-19T06:23:34.233Z,10.13
2017-07-19T06:26:02.483Z,10.07
2017-07-19T06:28:30.725Z,9.97
2017-07-19T06:30:58.996Z,8.93
2017-07-19T06:33:27.437Z,9.20
2017-07-19T06:35:56.412Z,9.97
2017-07-19T06:38:25.443Z,10.03
2017-07-19T06:40:53.702Z,10.17
2017-07-19T06:43:22.749Z,8.93
2017-07-19T06:45:51.047Z,9.30
2017-07-19T06:48:19.310Z,9.53
2017-07-19T06:50:48.346Z,8.87
2017-07-19T06:53:17.575Z,9.00
2017-07-19T06:55:45.820Z,8.80
2017-07-19T06:58:14.082Z,9.13
2017-07-19T07:00:43.083Z,8.43
2017-07-19T07:03:11.344Z,8.90
2017-07-19T07:05:40.374Z,8.70
2017-07-19T07:08:08.697Z,9.87
2017-07-19T07:10:36.934Z,8.67
2017-07-19T07:13:05.203Z,10.07
2017-07-19T07:15:33.443Z,9.00
2017-07-19T07:18:01.771Z,9.90
2017-07-19T07:20:30.044Z,9.80
2017-07-19T07:22:58.274Z,9.00
2017-07-19T07:25:27.326Z,10.20
2017-07-19T07:27:55.595Z,8.90
2017-07-19T07:30:23.835Z,9.47
2017-07-19T07:32:52.095Z,7.97
2017-07-19T07:35:20.430Z,8.93
2017-07-19T07:37:48.674Z,8.93
2017-07-19T07:40:16.963Z,8.87
2017-07-19T07:42:45.258Z,9.10
2017-07-19T07:45:13.505Z,7.63
2017-07-19T07:47:42.526Z,8.40
2017-07-19T07:50:10.773Z,8.40
2017-07-19T07:52:39.803Z,7.77
2017-07-19T07:55:08.084Z,8.73
2017-07-19T07:57:36.455Z,8.53
2017-07-19T08:00:04.759Z,7.50
2017-07-19T08:02:33.024Z,8.40
2017-07-19T08:05:01.281Z,7.40
2017-07-19T08:07:29.563Z,7.13
2017-07-19T08:09:57.947Z,7.93
2017-07-19T08:12:26.186Z,8.30
2017-07-19T08:14:55.318Z,7.57
2017-07-19T08:17:23.560Z,8.20
2017-07-19T08:19:52.597Z,7.70
2017-07-19T08:22:21.274Z,7.67
2017-07-19T08:24:50.278Z,7.60
2017-07-19T08:27:18.531Z,7.13
2017-07-19T08:29:46.813Z,8.90
2017-07-19T08:32:15.133Z,7.90
2017-07-19T08:34:43.516Z,6.23
2017-07-19T08:37:11.753Z,6.60
2017-07-19T08:39:40.048Z,7.37
2017-07-19T08:42:08.416Z,7.33
2017-07-19T08:44:37.402Z,6.30
2017-07-19T08:47:05.667Z,7.17
2017-07-19T08:49:33.969Z,6.80
2017-07-19T08:52:02.345Z,7.27
2017-07-19T08:54:31.322Z,7.00
2017-07-19T08:56:59.566Z,6.50
2017-07-19T08:59:27.815Z,6.50
2017-07-19T09:01:56.082Z,6.60
2017-07-19T09:04:24.320Z,7.13
2017-07-19T09:06:52.594Z,6.97
2017-07-19T09:09:20.861Z,6.73
2017-07-19T09:11:49.087Z,6.33
2017-07-19T09:14:18.301Z,6.07
2017-07-19T09:16:46.566Z,6.40
2017-07-19T09:19:14.899Z,5.80
2017-07-19T09:21:43.925Z,6.57
2017-07-19T09:24:12.154Z,5.50
2017-07-19T09:26:40.428Z,6.43
2017-07-19T09:29:08.660Z,6.10
2017-07-19T09:31:36.950Z,5.90
2017-07-19T09:34:05.238Z,6.27
2017-07-19T09:36:33.511Z,5.40
2017-07-19T09:39:01.750Z,5.87
2017-07-19T09:41:30.038Z,5.90
2017-07-19T09:43:58.387Z,4.97
2017-07-19T09:46:26.773Z,5.70
2017-07-19T09:48:55.823Z,5.50
2017-07-19T09:51:24.078Z,7.80
2017-07-19T09:53:52.350Z,6.43
2017-07-19T09:56:20.595Z,5.00
2017-07-19T09:58:48.858Z,5.40
2017-07-19T10:01:17.869Z,5.77
2017-07-19T10:03:46.127Z,6.63
2017-07-19T10:06:14.346Z,6.20
2017-07-19T10:08:42.607Z,7.07
2017-07-19T10:11:11.635Z,5.90
2017-07-19T10:13:39.869Z,5.20
2017-07-19T10:16:08.905Z,5.33
2017-07-19T10:18:37.145Z,6.33
2017-07-19T10:21:05.381Z,6.40
2017-07-19T10:23:33.647Z,6.77
2017-07-19T10:26:01.882Z,5.93
2017-07-19T10:28:30.212Z,7.07
2017-07-19T10:30:58.474Z,7.50
2017-07-19T10:33:26.728Z,8.63
2017-07-19T10:35:54.999Z,6.10
2017-07-19T10:38:23.243Z,8.20
2017-07-19T10:40:51.507Z,7.40
2017-07-19T10:43:19.746Z,9.47
2017-07-19T10:45:48.019Z,8.97
2017-07-19T10:48:17.257Z,6.27
2017-07-19T10:50:45.538Z,5.83
2017-07-19T10:53:13.916Z,5.50
2017-07-19T10:55:42.159Z,5.83
2017-07-19T10:58:10.450Z,5.70
2017-07-19T11:00:38.728Z,5.57
2017-07-19T11:03:06.990Z,5.60
2017-07-19T11:05:35.265Z,6.40
2017-07-19T11:08:03.521Z,5.57
2017-07-19T11:10:31.819Z,5.80
2017-07-19T11:13:00.070Z,6.70
2017-07-19T11:15:28.338Z,7.00
2017-07-19T11:17:56.573Z,6.00
2017-07-19T11:20:24.833Z,7.27
2017-07-19T11:22:53.056Z,7.73
2017-07-19T11:25:22.055Z,9.47
2017-07-19T11:27:50.336Z,6.40
2017-07-19T11:30:18.603Z,5.90
2017-07-19T11:32:46.923Z,6.67
2017-07-19T11:35:15.178Z,7.50
2017-07-19T11:37:43.574Z,15.07
2017-07-19T11:40:11.813Z,7.20
2017-07-19T11:42:40.074Z,5.70
2017-07-19T11:45:08.314Z,6.07
2017-07-19T11:47:36.599Z,6.43
2017-07-19T11:50:04.866Z,6.30
2017-07-19T11:52:33.144Z,15.00
2017-07-19T11:55:01.396Z,6.47
2017-07-19T11:57:29.639Z,5.53
2017-07-19T11:59:57.912Z,5.97
2017-07-19T12:02:26.186Z,7.00
2017-07-19T12:04:54.462Z,6.03
2017-07-19T12:07:22.704Z,6.87
2017-07-19T12:09:50.982Z,6.50
2017-07-19T12:12:19.251Z,6.50
2017-07-19T12:14:47.486Z,5.90
2017-07-19T12:17:16.543Z,6.00
2017-07-19T12:19:44.808Z,6.43
2017-07-19T12:22:13.074Z,7.03
2017-07-19T12:24:41.361Z,6.90
2017-07-19T12:27:09.605Z,6.53
2017-07-19T12:29:38.011Z,6.53
2017-07-19T12:32:06.244Z,6.50
2017-07-19T12:34:35.297Z,6.37
2017-07-19T12:37:04.537Z,6.70
2017-07-19T12:39:35.285Z,6.40
2017-07-19T12:42:03.535Z,6.87
2017-07-19T12:44:31.802Z,7.37
2017-07-19T12:47:00.165Z,5.93
2017-07-19T12:49:28.389Z,5.57
2017-07-19T12:51:57.404Z,6.80
2017-07-19T12:54:25.694Z,6.83
2017-07-19T12:56:54.670Z,6.40
2017-07-19T12:59:22.937Z,5.53
2017-07-19T13:01:51.962Z,5.63
2017-07-19T13:04:20.214Z,6.63
2017-07-19T13:06:48.498Z,6.50
2017-07-19T13:09:17.638Z,8.83
2017-07-19T13:11:45.971Z,6.83
2017-07-19T13:14:14.227Z,7.60
2017-07-19T13:16:43.267Z,9.93
2017-07-19T13:19:11.515Z,9.33
2017-07-19T13:21:41.148Z,6.40
2017-07-19T13:24:09.397Z,7.87
2017-07-19T13:26:37.659Z,6.40
2017-07-19T13:29:06.702Z,5.87
2017-07-19T13:31:34.985Z,6.10
2017-07-19T13:34:03.260Z,7.10
2017-07-19T13:36:31.536Z,6.70
2017-07-19T13:39:09.718Z,6.27
2017-07-19T13:41:37.979Z,6.30
2017-07-19T13:44:06.254Z,6.60
2017-07-19T13:46:34.504Z,6.97
2017-07-19T13:49:02.798Z,7.93
2017-07-19T13:51:31.075Z,6.07
2017-07-19T13:53:59.339Z,6.93
2017-07-19T13:56:27.598Z,7.10
2017-07-19T13:58:55.961Z,7.53
2017-07-19T14:01:24.201Z,6.57
2017-07-19T14:03:53.302Z,6.63
2017-07-19T14:06:22.370Z,6.30
2017-07-19T14:08:51.439Z,6.90
2017-07-19T14:11:19.714Z,7.40
2017-07-19T14:13:47.966Z,6.13
2017-07-19T14:16:16.252Z,6.43
2017-07-19T14:18:44.505Z,6.47
2017-07-19T14:21:12.873Z,6.97
2017-07-19T14:23:41.906Z,7.10
2017-07-19T14:26:10.170Z,5.90
2017-07-19T14:28:38.460Z,6.57
2017-07-19T14:31:06.718Z,6.93
2017-07-19T14:33:34.974Z,5.73
2017-07-19T14:36:04.040Z,6.60
2017-07-19T14:38:32.314Z,9.03
2017-07-19T14:41:00.628Z,7.17
2017-07-19T14:43:28.944Z,6.90
2017-07-19T14:45:57.189Z,5.90
2017-07-19T14:48:26.222Z,5.80
2017-07-19T14:50:54.473Z,5.70
2017-07-19T14:53:22.717Z,6.20
2017-07-19T14:55:51.750Z,7.23
2017-07-19T14:58:20.015Z,5.47
2017-07-19T15:00:49.052Z,6.43
2017-07-19T15:03:17.328Z,6.43
2017-07-19T15:05:45.774Z,6.50
2017-07-19T15:08:14.092Z,26.03
2017-07-19T15:10:42.372Z,6.87
2017-07-19T15:13:10.627Z,6.70
2017-07-19T15:15:38.907Z,6.93
2017-07-19T15:18:07.287Z,6.63
2017-07-19T15:20:35.542Z,6.90
2017-07-19T15:23:03.864Z,7.77
2017-07-19T15:25:32.151Z,6.10
2017-07-19T15:28:00.450Z,5.60
2017-07-19T15:30:29.476Z,5.03
2017-07-19T15:32:57.774Z,5.20
2017-07-19T15:35:26.016Z,5.83
2017-07-19T15:37:54.314Z,5.47
2017-07-19T15:40:22.578Z,7.03
2017-07-19T15:42:50.877Z,7.63
2017-07-19T15:45:19.154Z,4.80
2017-07-19T15:47:47.403Z,6.33
2017-07-19T15:50:16.434Z,4.73
2017-07-19T15:52:44.661Z,6.33
2017-07-19T15:55:13.728Z,4.80
2017-07-19T15:57:42.142Z,5.80
2017-07-19T16:00:10.460Z,5.77
2017-07-19T16:02:38.723Z,5.80
2017-07-19T16:05:06.972Z,5.40
2017-07-19T16:07:36.046Z,5.03
2017-07-19T16:10:04.290Z,6.07
2017-07-19T16:12:32.675Z,5.40
2017-07-19T16:15:00.963Z,6.27
2017-07-19T16:17:29.227Z,6.53
2017-07-19T16:19:57.652Z,7.23
2017-07-19T16:22:26.658Z,6.90
2017-07-19T16:24:54.948Z,9.40
2017-07-19T16:27:23.206Z,8.77
2017-07-19T16:29:52.258Z,5.23
2017-07-19T16:32:20.531Z,7.57
2017-07-19T16:34:48.798Z,7.03
2017-07-19T16:37:17.108Z,8.03
2017-07-19T16:39:45.667Z,9.00
2017-07-19T16:42:13.955Z,7.47
2017-07-19T16:44:42.245Z,8.93
2017-07-19T16:47:10.514Z,7.50
2017-07-19T16:49:38.827Z,6.73
2017-07-19T16:52:07.087Z,7.90
2017-07-19T16:54:35.349Z,5.60
2017-07-19T16:57:03.638Z,7.43
2017-07-19T16:59:31.887Z,8.37
2017-07-19T17:02:00.164Z,8.90
2017-07-19T17:04:28.426Z,7.10
2017-07-19T17:06:56.711Z,8.10
2017-07-19T17:09:25.723Z,7.83
2017-07-19T17:11:53.976Z,10.60
2017-07-19T17:14:22.278Z,10.17
2017-07-19T17:16:50.572Z,8.77
2017-07-19T17:19:18.818Z,7.47
2017-07-19T17:21:47.115Z,7.93
2017-07-19T17:24:15.466Z,7.20
2017-07-19T17:26:43.786Z,7.43
2017-07-19T17:29:12.026Z,8.40
2017-07-19T17:31:40.275Z,7.57
2017-07-19T17:34:08.558Z,7.00
2017-07-19T17:36:36.860Z,6.37
2017-07-19T17:39:05.137Z,8.40
2017-07-19T17:41:33.398Z,8.27
2017-07-19T17:44:01.743Z,7.83
2017-07-19T17:46:30.011Z,7.50
2017-07-19T17:48:58.314Z,7.77
2017-07-19T17:51:27.351Z,7.07
2017-07-19T17:53:55.648Z,7.13
2017-07-19T17:56:24.753Z,6.47
2017-07-19T17:58:53.016Z,7.17
2017-07-19T18:01:22.078Z,7.00
2017-07-19T18:03:50.415Z,8.70
2017-07-19T18:06:19.468Z,7.67
2017-07-19T18:08:47.755Z,7.03
2017-07-19T18:11:16.051Z,7.10
2017-07-19T18:13:44.266Z,6.77
2017-07-19T18:16:13.448Z,7.30
2017-07-19T18:18:43.444Z,7.33
2017-07-19T18:21:11.726Z,7.83
2017-07-19T18:23:39.996Z,7.17
2017-07-19T18:26:08.257Z,7.30
2017-07-19T18:28:36.606Z,8.17
2017-07-19T18:31:04.874Z,7.70
2017-07-19T18:33:33.160Z,6.93
2017-07-19T18:36:01.412Z,7.43
2017-07-19T18:38:29.757Z,8.87
2017-07-19T18:40:58.869Z,8.20
2017-07-19T18:43:27.183Z,7.53
2017-07-19T18:45:55.458Z,8.27
2017-07-19T18:48:24.482Z,7.50
2017-07-19T18:50:52.770Z,11.07
2017-07-19T18:53:21.083Z,7.40
2017-07-19T18:55:49.331Z,8.43
2017-07-19T18:58:17.689Z,9.00
2017-07-19T19:00:45.947Z,7.60
2017-07-19T19:03:14.969Z,7.70
2017-07-19T19:05:43.223Z,8.40
2017-07-19T19:08:11.827Z,7.90
2017-07-19T19:10:40.101Z,8.50
2017-07-19T19:13:14.011Z,8.23
2017-07-19T19:15:46.863Z,7.13
2017-07-19T19:18:17.257Z,7.30
2017-07-19T19:20:46.764Z,7.13
2017-07-19T19:23:16.239Z,8.00
2017-07-19T19:25:46.865Z,8.33
2017-07-19T19:28:15.209Z,8.30
2017-07-19T19:30:46.143Z,8.80
2017-07-19T19:33:15.486Z,9.30
2017-07-19T19:35:45.364Z,9.47
2017-07-19T19:38:13.805Z,10.03
2017-07-19T19:40:42.253Z,11.03
2017-07-19T19:43:12.006Z,9.37
2017-07-19T19:45:40.398Z,9.20
2017-07-19T19:48:09.016Z,9.97
2017-07-19T19:50:37.351Z,10.70
2017-07-19T19:53:06.654Z,11.87
2017-07-19T19:55:35.880Z,10.80
2017-07-19T19:58:04.255Z,9.73
2017-07-19T20:00:33.185Z,10.60
2017-07-19T20:03:01.883Z,9.60
2017-07-19T20:05:30.192Z,10.70
2017-07-19T20:07:58.466Z,9.30
2017-07-19T20:10:26.787Z,10.03
2017-07-19T20:12:55.113Z,9.40
2017-07-19T20:15:23.592Z,10.07
2017-07-19T20:17:51.892Z,9.03
2017-07-19T20:20:20.190Z,9.17
2017-07-19T20:22:49.233Z,10.13
2017-07-19T20:25:17.516Z,10.40
2017-07-19T20:27:45.863Z,10.33
2017-07-19T20:30:14.100Z,10.00
2017-07-19T20:32:42.386Z,10.30
2017-07-19T20:35:11.121Z,9.60
2017-07-19T20:37:40.273Z,9.87
2017-07-19T20:40:08.567Z,9.97
2017-07-19T20:42:37.589Z,9.77
2017-07-19T20:45:05.864Z,8.30
2017-07-19T20:47:34.116Z,9.23
2017-07-19T20:50:02.441Z,12.37
2017-07-19T20:52:30.741Z,12.10
2017-07-19T20:54:59.061Z,12.20
2017-07-19T20:57:27.341Z,9.70
2017-07-19T20:59:55.641Z,9.33
2017-07-19T21:02:23.911Z,9.77
2017-07-19T21:04:52.193Z,9.93
2017-07-19T21:07:21.397Z,9.90
2017-07-19T21:09:49.655Z,10.73
2017-07-19T21:12:17.946Z,10.50
2017-07-19T21:14:46.391Z,10.60
2017-07-19T21:17:14.647Z,10.67
2017-07-19T21:19:42.997Z,9.27
2017-07-19T21:22:12.053Z,10.27
2017-07-19T21:24:40.398Z,11.07
2017-07-19T21:27:09.465Z,11.13
2017-07-19T21:29:37.720Z,10.33
2017-07-19T21:32:06.678Z,10.47
2017-07-19T21:34:35.708Z,9.40
2017-07-19T21:37:03.990Z,11.13
2017-07-19T21:39:32.286Z,11.03
2017-07-19T21:42:00.553Z,10.80
2017-07-19T21:44:28.861Z,11.47
2017-07-19T21:46:57.886Z,9.37
2017-07-19T21:49:26.162Z,8.80
2017-07-19T21:51:54.433Z,10.80
2017-07-19T21:54:22.733Z,9.03
2017-07-19T21:56:51.019Z,10.83
2017-07-19T21:59:19.423Z,11.10
2017-07-19T22:01:47.653Z,10.30
2017-07-19T22:04:15.957Z,9.77
2017-07-19T22:06:44.167Z,11.20
2017-07-19T22:09:12.460Z,11.17
2017-07-19T22:11:41.509Z,8.47
2017-07-19T22:14:09.798Z,10.03
2017-07-19T22:16:38.050Z,9.63
2017-07-19T22:19:06.297Z,10.37
2017-07-19T22:21:35.313Z,10.63
2017-07-19T22:24:03.582Z,9.60
2017-07-19T22:26:31.837Z,12.00
2017-07-19T22:29:00.881Z,15.47
2017-07-19T22:31:29.158Z,14.30
2017-07-19T22:33:57.398Z,9.87
2017-07-19T22:36:26.425Z,12.17
2017-07-19T22:38:54.910Z,11.90
2017-07-19T22:41:23.313Z,11.80
2017-07-19T22:43:51.558Z,11.90
2017-07-19T22:46:19.844Z,10.93
2017-07-19T22:48:48.118Z,10.30
2017-07-19T22:51:16.364Z,10.63
2017-07-19T22:53:45.408Z,10.70
2017-07-19T22:56:13.656Z,9.23
2017-07-19T22:58:43.702Z,10.33
2017-07-19T23:01:11.917Z,9.30
2017-07-19T23:03:40.934Z,10.00
2017-07-19T23:06:09.199Z,9.73
2017-07-19T23:08:37.512Z,9.97
2017-07-19T23:11:05.743Z,9.30
2017-07-19T23:13:34.786Z,9.47
2017-07-19T23:16:03.029Z,10.63
2017-07-19T23:18:31.342Z,10.47
2017-07-19T23:20:59.576Z,9.50
2017-07-19T23:23:28.584Z,9.50
2017-07-19T23:25:56.826Z,9.40
2017-07-19T23:28:25.078Z,10.03
2017-07-19T23:30:53.314Z,10.60
2017-07-19T23:33:21.586Z,9.17
2017-07-19T23:35:49.855Z,9.13
2017-07-19T23:38:18.897Z,10.30
2017-07-19T23:40:47.127Z,10.10
2017-07-19T23:43:16.134Z,11.13
2017-07-19T23:45:44.401Z,10.33
2017-07-19T23:48:12.916Z,11.00
2017-07-19T23:50:41.159Z,9.93
2017-07-19T23:53:09.447Z,11.83
2017-07-19T23:55:37.720Z,10.23
2017-07-19T23:58:06.716Z,9.60
